Barrowford, United Kingdom
Current Conditions -  °F | °C
As of 6:20 AM on Thursday 23 Oct 2014 (Local Time) from EGNM Reporting Station
Scattered Clouds Scattered Clouds  
Wind Chill: 50°   Ceiling: Unl
Heat Index: 50°   Visibility: 6mi
Dew Point: 46°   Wind: 8mph
Humidity: 87%   Direction: 260°W
Pressure: 29.97"   Gusts: NA
Location:  53.85°N, 2.22°W
Report Text: EGNM 230520Z 26007KT 230V320 9999 SCT026 10/08 Q1015
Loading
Personal Weather Stations






























Interactive Weather Map
Tropical Storm Tracking
New forecast layout! Learn more

10-Day Weather Forecast

Advertisements
Track Severe Weather on mobile